createdAt,value
2022-08-19T00:02:01.853Z,94904.44
2022-08-19T00:04:32.359Z,94900.13
2022-08-19T00:07:01.312Z,94896.56
2022-08-19T00:09:30.195Z,94897.22
2022-08-19T00:12:00.502Z,94899.78
2022-08-19T00:14:31.180Z,94890.00
2022-08-19T00:16:59.451Z,94897.66
2022-08-19T00:19:27.462Z,94890.78
2022-08-19T00:21:57.153Z,94887.59
2022-08-19T00:24:25.610Z,94886.03
2022-08-19T00:26:54.487Z,94884.47
2022-08-19T00:29:25.149Z,94887.69
2022-08-19T00:31:56.917Z,94894.06
2022-08-19T00:34:28.082Z,94895.63
2022-08-19T00:36:56.629Z,94888.69
2022-08-19T00:39:24.995Z,94895.31
2022-08-19T00:41:53.750Z,94888.19
2022-08-19T00:44:27.241Z,94885.63
2022-08-19T00:46:58.188Z,94891.19
2022-08-19T00:49:31.815Z,94885.25
2022-08-19T00:52:04.091Z,94879.28
2022-08-19T00:54:34.063Z,94881.00
2022-08-19T00:57:04.333Z,94874.19
2022-08-19T00:59:56.207Z,94886.84
2022-08-19T01:02:26.260Z,94890.75
2022-08-19T01:04:54.293Z,94897.69
2022-08-19T01:07:22.643Z,94890.75
2022-08-19T01:09:52.208Z,94888.50
2022-08-19T01:12:20.844Z,94890.44
2022-08-19T01:14:51.576Z,94893.44
2022-08-19T01:17:21.208Z,94889.19
2022-08-19T01:19:49.692Z,94893.03
2022-08-19T01:22:33.408Z,94887.16
2022-08-19T01:25:02.172Z,94874.66
2022-08-19T01:27:43.795Z,94883.31
2022-08-19T01:30:15.168Z,94879.44
2022-08-19T01:32:44.269Z,94876.75
2022-08-19T01:35:15.067Z,94883.63
2022-08-19T01:37:50.899Z,94891.84
2022-08-19T01:40:21.136Z,94891.06
2022-08-19T01:42:50.036Z,94892.16
2022-08-19T01:45:19.155Z,94895.59
2022-08-19T01:48:01.346Z,94883.38
2022-08-19T01:50:31.886Z,94891.63
2022-08-19T01:53:05.921Z,94895.34
2022-08-19T01:55:40.864Z,94890.19
2022-08-19T01:58:13.041Z,94893.34
2022-08-19T02:00:41.497Z,94896.75
2022-08-19T02:03:11.049Z,94900.56
2022-08-19T02:05:39.580Z,94902.47
2022-08-19T02:08:09.720Z,94901.47
2022-08-19T02:10:41.868Z,94905.75
2022-08-19T02:13:10.226Z,94910.34
2022-08-19T02:15:38.892Z,94911.13
2022-08-19T02:18:08.380Z,94902.47
2022-08-19T02:20:36.841Z,94903.59
2022-08-19T02:23:05.157Z,94903.28
2022-08-19T02:25:45.449Z,94918.06
2022-08-19T02:28:18.017Z,94916.06
2022-08-19T02:30:47.391Z,94919.72
2022-08-19T02:33:15.745Z,94924.47
2022-08-19T02:35:44.815Z,94923.91
2022-08-19T02:38:27.042Z,94928.16
2022-08-19T02:40:58.868Z,94920.47
2022-08-19T02:43:28.559Z,94925.44
2022-08-19T02:45:56.739Z,94929.09
2022-08-19T02:48:26.709Z,94919.50
2022-08-19T02:50:56.356Z,94925.03
2022-08-19T02:53:26.650Z,94934.84
2022-08-19T02:55:56.235Z,94926.38
2022-08-19T02:58:25.331Z,94929.09
2022-08-19T03:00:56.607Z,94932.91
2022-08-19T03:03:25.490Z,94930.31
2022-08-19T03:05:56.160Z,94926.03
2022-08-19T03:08:26.592Z,94939.53
2022-08-19T03:10:56.065Z,94930.88
2022-08-19T03:13:25.050Z,94932.22
2022-08-19T03:15:53.070Z,94931.44
2022-08-19T03:18:21.124Z,94939.38
2022-08-19T03:20:55.487Z,94941.63
2022-08-19T03:23:24.763Z,94940.28
2022-08-19T03:26:02.853Z,94949.84
2022-08-19T03:28:51.507Z,94957.66
2022-08-19T03:31:44.320Z,94950.22
2022-08-19T03:34:18.690Z,94951.75
2022-08-19T03:36:47.404Z,94953.84
2022-08-19T03:39:16.028Z,94944.25
2022-08-19T03:41:48.275Z,94952.16
2022-08-19T03:44:24.011Z,94956.97
2022-08-19T03:46:54.995Z,94956.41
2022-08-19T03:49:28.272Z,94948.16
2022-08-19T03:51:58.448Z,94954.91
2022-08-19T03:54:28.601Z,94961.66
2022-08-19T03:56:58.111Z,94964.38
2022-08-19T03:59:30.060Z,94967.56
2022-08-19T04:02:02.057Z,94970.22
2022-08-19T04:04:30.109Z,94972.81
2022-08-19T04:07:00.282Z,94975.97
2022-08-19T04:09:28.312Z,94971.19
2022-08-19T04:11:59.064Z,94970.72
2022-08-19T04:14:31.261Z,94966.91
2022-08-19T04:17:00.475Z,94976.47
2022-08-19T04:19:31.067Z,94970.22
2022-08-19T04:21:59.574Z,94973.69
2022-08-19T04:24:27.887Z,94981.88
2022-08-19T04:26:55.830Z,94983.94
2022-08-19T04:29:27.815Z,94988.22
2022-08-19T04:31:59.601Z,94996.16
2022-08-19T04:34:30.633Z,94989.78
2022-08-19T04:37:00.406Z,94993.50
2022-08-19T04:39:44.879Z,95004.56
2022-08-19T04:42:31.091Z,94996.28
2022-08-19T04:44:59.692Z,95012.31
2022-08-19T04:47:47.819Z,95014.88
2022-08-19T04:50:17.584Z,95018.34
2022-08-19T04:52:47.107Z,95018.06
2022-08-19T04:55:15.501Z,95024.94
2022-08-19T04:57:43.684Z,95022.97
2022-08-19T05:00:12.600Z,95025.09
2022-08-19T05:02:42.016Z,95028.72
2022-08-19T05:05:10.497Z,95025.50
2022-08-19T05:07:38.656Z,95028.66
2022-08-19T05:10:07.661Z,95038.13
2022-08-19T05:12:35.985Z,95038.38
2022-08-19T05:15:06.730Z,95045.00
2022-08-19T05:17:38.645Z,95054.66
2022-08-19T05:20:27.482Z,95053.22
2022-08-19T05:22:55.809Z,95054.78
2022-08-19T05:25:26.280Z,95055.81
2022-08-19T05:27:54.332Z,95059.00
2022-08-19T05:30:24.417Z,95063.81
2022-08-19T05:33:11.102Z,95064.38
2022-08-19T05:35:41.251Z,95052.22
2022-08-19T05:38:10.210Z,95054.88
2022-08-19T05:40:38.274Z,95057.47
2022-08-19T05:43:08.104Z,95061.66
2022-08-19T05:45:41.070Z,95065.38
2022-08-19T05:48:12.035Z,95069.94
2022-08-19T05:50:43.124Z,95071.31
2022-08-19T05:53:11.189Z,95077.69
2022-08-19T05:55:40.683Z,95081.41
2022-08-19T05:58:09.394Z,95087.28
2022-08-19T06:00:37.826Z,95090.97
2022-08-19T06:03:09.734Z,95087.75
2022-08-19T06:05:50.317Z,95094.63
2022-08-19T06:08:34.143Z,95101.53
2022-08-19T06:11:19.181Z,95098.91
2022-08-19T06:13:51.542Z,95105.78
2022-08-19T06:16:23.350Z,95110.53
2022-08-19T06:18:53.670Z,95105.25
2022-08-19T06:21:24.005Z,95108.44
2022-08-19T06:23:53.495Z,95123.22
2022-08-19T06:26:23.112Z,95118.47
2022-08-19T06:28:51.407Z,95127.16
2022-08-19T06:31:21.944Z,95133.22
2022-08-19T06:33:50.536Z,95136.38
2022-08-19T06:36:20.485Z,95132.94
2022-08-19T06:38:54.731Z,95142.19
2022-08-19T06:41:22.818Z,95136.88
2022-08-19T06:43:50.950Z,95141.63
2022-08-19T06:46:22.471Z,95142.09
2022-08-19T06:48:51.203Z,95146.34
2022-08-19T06:51:20.557Z,95151.09
2022-08-19T06:56:23.155Z,95155.34
2022-08-19T06:58:52.800Z,95159.31
2022-08-19T07:01:21.902Z,95154.53
2022-08-19T07:03:50.075Z,95157.72
2022-08-19T07:09:10.777Z,95154.25
2022-08-19T07:11:46.468Z,95161.19
2022-08-19T07:14:19.324Z,95158.50
2022-08-19T07:16:49.703Z,95169.34
2022-08-19T07:19:18.872Z,95163.75
2022-08-19T07:21:50.958Z,95184.91
2022-08-19T07:24:19.666Z,95187.03
2022-08-19T07:26:51.645Z,95184.94
2022-08-19T07:29:24.116Z,95181.47
2022-08-19T07:31:57.412Z,95184.66
2022-08-19T07:34:29.430Z,95184.38
2022-08-19T07:36:58.497Z,95184.88
2022-08-19T07:39:30.116Z,95179.03
2022-08-19T07:42:01.956Z,95184.03
2022-08-19T07:44:30.027Z,95192.22
2022-08-19T07:47:00.947Z,95188.53
2022-08-19T07:49:29.977Z,95194.38
2022-08-19T07:52:03.296Z,95187.44
2022-08-19T07:54:35.494Z,95191.59
2022-08-19T07:57:06.323Z,95187.84
2022-08-19T07:59:35.722Z,95189.94
2022-08-19T08:02:04.043Z,95189.69
2022-08-19T08:04:50.904Z,95194.72
2022-08-19T08:07:36.532Z,95197.03
2022-08-19T08:10:06.200Z,95190.84
2022-08-19T08:12:43.392Z,95192.41
2022-08-19T08:15:26.592Z,95194.00
2022-08-19T08:17:58.834Z,95192.44
2022-08-19T08:20:26.798Z,95194.59
2022-08-19T08:23:12.152Z,95198.78
2022-08-19T08:25:40.149Z,95206.19
2022-08-19T08:28:11.308Z,95206.78
2022-08-19T08:30:45.087Z,95211.09
2022-08-19T08:33:13.922Z,95206.88
2022-08-19T08:35:44.001Z,95201.00
2022-08-19T08:38:11.937Z,95215.78
2022-08-19T08:40:45.202Z,95212.63
2022-08-19T08:43:24.350Z,95233.72
2022-08-19T08:46:01.267Z,95217.81
2022-08-19T08:48:39.999Z,95227.94
2022-08-19T08:51:14.585Z,95227.94
2022-08-19T08:53:51.269Z,95227.13
2022-08-19T08:56:24.930Z,95231.00
2022-08-19T08:59:00.774Z,95235.84
2022-08-19T09:01:29.009Z,95237.41
2022-08-19T09:04:02.790Z,95237.66
2022-08-19T09:06:40.967Z,95242.63
2022-08-19T09:09:18.885Z,95239.41
2022-08-19T09:11:58.795Z,95239.41
2022-08-19T09:14:54.326Z,95238.38
2022-08-19T09:17:32.058Z,95240.72
2022-08-19T09:20:06.114Z,95231.97
2022-08-19T09:22:38.034Z,95242.31
2022-08-19T09:25:07.136Z,95249.28
2022-08-19T09:27:43.194Z,95244.28
2022-08-19T09:30:17.287Z,95252.19
2022-08-19T09:32:46.410Z,95254.84
2022-08-19T09:35:16.190Z,95256.91
2022-08-19T09:37:45.109Z,95253.44
2022-08-19T09:40:15.463Z,95257.97
2022-08-19T09:42:49.982Z,95260.09
2022-08-19T09:45:23.076Z,95252.13
2022-08-19T09:47:54.309Z,95257.91
2022-08-19T09:50:24.207Z,95265.91
2022-08-19T09:52:55.335Z,95271.44
2022-08-19T09:55:31.580Z,95271.13
2022-08-19T09:58:03.792Z,95274.69
2022-08-19T10:00:33.375Z,95271.59
2022-08-19T10:03:01.659Z,95272.22
2022-08-19T10:05:49.089Z,95265.97
2022-08-19T10:08:19.009Z,95270.88
2022-08-19T10:10:49.714Z,95276.09
2022-08-19T10:13:22.992Z,95271.31
2022-08-19T10:15:52.990Z,95269.41
2022-08-19T10:18:23.158Z,95266.28
2022-08-19T10:20:53.480Z,95262.66
2022-08-19T10:23:22.905Z,95264.00
2022-08-19T10:25:52.440Z,95266.38
2022-08-19T10:28:20.414Z,95274.19
2022-08-19T10:30:49.131Z,95268.44
2022-08-19T10:33:38.232Z,95278.47
2022-08-19T10:36:10.582Z,95270.81
2022-08-19T10:38:39.801Z,95275.09
2022-08-19T10:41:25.088Z,95275.59
2022-08-19T10:43:55.373Z,95282.88
2022-08-19T10:46:25.223Z,95285.03
2022-08-19T10:48:55.474Z,95282.44
2022-08-19T10:51:48.082Z,95285.16
2022-08-19T10:54:31.356Z,95291.56
2022-08-19T10:57:00.411Z,95296.88
2022-08-19T10:59:33.863Z,95288.75
2022-08-19T11:02:05.858Z,95284.97
2022-08-19T11:04:35.716Z,95286.03
2022-08-19T11:07:04.492Z,95294.63
2022-08-19T11:09:34.324Z,95287.63
2022-08-19T11:12:04.745Z,95285.38
2022-08-19T11:14:34.485Z,95287.88
2022-08-19T11:17:03.511Z,95286.03
2022-08-19T11:19:31.604Z,95287.03
2022-08-19T11:22:03.971Z,95281.03
2022-08-19T11:24:33.758Z,95285.59
2022-08-19T11:27:07.056Z,95289.75
2022-08-19T11:29:35.468Z,95290.78
2022-08-19T11:32:06.944Z,95283.16
2022-08-19T11:34:36.298Z,95281.88
2022-08-19T11:37:06.831Z,95282.59
2022-08-19T11:39:37.806Z,95286.91
2022-08-19T11:42:28.098Z,95284.31
2022-08-19T11:44:56.504Z,95288.94
2022-08-19T11:47:25.066Z,95280.78
2022-08-19T11:49:54.473Z,95282.25
2022-08-19T11:52:24.033Z,95283.91
2022-08-19T11:54:52.088Z,95285.59
2022-08-19T11:57:20.753Z,95286.59
2022-08-19T11:59:53.599Z,95292.94
2022-08-19T12:02:22.684Z,95288.19
2022-08-19T12:04:50.907Z,95283.25
2022-08-19T12:07:18.974Z,95291.09
2022-08-19T12:09:48.585Z,95286.19
2022-08-19T12:12:17.362Z,95287.78
2022-08-19T12:14:45.460Z,95293.50
2022-08-19T12:17:14.417Z,95292.09
2022-08-19T12:19:42.428Z,95285.03
2022-08-19T12:22:10.418Z,95289.13
2022-08-19T12:24:38.354Z,95296.31
2022-08-19T12:27:12.569Z,95299.09
2022-08-19T12:29:42.548Z,95299.28
2022-08-19T12:32:12.206Z,95297.25
2022-08-19T12:34:41.039Z,95293.78
2022-08-19T12:37:09.582Z,95297.25
2022-08-19T12:39:39.568Z,95294.75
2022-08-19T12:42:09.914Z,95286.47
2022-08-19T12:44:38.670Z,95294.41
2022-08-19T12:47:11.448Z,95295.75
2022-08-19T12:49:53.818Z,95298.16
2022-08-19T12:52:25.542Z,95298.00
2022-08-19T12:54:55.424Z,95299.13
2022-08-19T12:57:32.018Z,95299.50
2022-08-19T13:00:03.466Z,95293.59
2022-08-19T13:02:39.074Z,95298.50
2022-08-19T13:05:11.632Z,95299.09
2022-08-19T13:07:40.713Z,95299.09
2022-08-19T13:10:10.670Z,95298.00
2022-08-19T13:12:42.079Z,95296.34
2022-08-19T13:15:11.488Z,95301.25
2022-08-19T13:17:40.948Z,95301.44
2022-08-19T13:20:10.696Z,95300.72
2022-08-19T13:22:39.588Z,95308.41
2022-08-19T13:25:09.245Z,95306.63
2022-08-19T13:27:39.570Z,95308.63
2022-08-19T13:30:42.165Z,95311.19
2022-08-19T13:33:15.520Z,95308.88
2022-08-19T13:35:47.412Z,95314.22
2022-08-19T13:38:16.600Z,95308.50
2022-08-19T13:40:44.593Z,95316.59
2022-08-19T13:43:22.754Z,95311.75
2022-08-19T13:45:53.720Z,95310.47
2022-08-19T13:48:22.003Z,95310.88
2022-08-19T13:50:50.066Z,95311.56
2022-08-19T13:53:18.480Z,95308.09
2022-08-19T13:55:47.534Z,95306.50
2022-08-19T13:58:17.058Z,95313.97
2022-08-19T14:00:47.572Z,95312.53
2022-08-19T14:03:16.012Z,95310.47
2022-08-19T14:05:43.975Z,95307.81
2022-08-19T14:08:15.197Z,95316.38
2022-08-19T14:10:45.270Z,95308.81
2022-08-19T14:13:18.360Z,95310.97
2022-08-19T14:15:47.070Z,95307.69
2022-08-19T14:18:15.390Z,95311.06
2022-08-19T14:20:43.710Z,95310.19
2022-08-19T14:23:13.211Z,95317.28
2022-08-19T14:25:41.340Z,95311.94
2022-08-19T14:28:09.748Z,95311.94
2022-08-19T14:30:39.819Z,95313.53
2022-08-19T14:33:09.505Z,95304.47
2022-08-19T14:35:38.487Z,95315.09
2022-08-19T14:38:09.185Z,95318.19
2022-08-19T14:40:37.296Z,95312.78
2022-08-19T14:43:06.572Z,95309.38
2022-08-19T14:45:38.986Z,95305.06
2022-08-19T14:48:12.606Z,95311.75
2022-08-19T14:50:48.038Z,95316.69
2022-08-19T14:53:18.534Z,95312.28
2022-08-19T14:55:47.767Z,95309.63
2022-08-19T14:58:28.977Z,95312.16
2022-08-19T15:01:01.090Z,95312.16
2022-08-19T15:03:29.755Z,95321.69
2022-08-19T15:05:59.007Z,95325.31
2022-08-19T15:08:27.800Z,95318.19
2022-08-19T15:10:56.339Z,95324.31
2022-08-19T15:13:25.599Z,95326.78
2022-08-19T15:15:53.730Z,95318.59
2022-08-19T15:18:23.337Z,95319.38
2022-08-19T15:20:51.982Z,95319.16
2022-08-19T15:23:21.090Z,95318.88
2022-08-19T15:25:49.300Z,95321.25
2022-08-19T15:28:17.481Z,95330.00
2022-08-19T15:30:45.753Z,95330.59
2022-08-19T15:33:15.251Z,95329.03
2022-08-19T15:35:45.070Z,95335.41
2022-08-19T15:38:14.114Z,95335.47
2022-08-19T15:40:43.306Z,95341.47
2022-08-19T15:43:11.522Z,95330.31
2022-08-19T15:45:40.343Z,95334.28
2022-08-19T15:48:08.418Z,95329.66
2022-08-19T15:50:36.940Z,95345.31
2022-08-19T15:53:09.314Z,95339.22
2022-08-19T15:55:43.448Z,95333.91
2022-08-19T15:58:31.245Z,95339.22
2022-08-19T16:01:20.255Z,95339.22
2022-08-19T16:04:14.376Z,95343.53
2022-08-19T16:06:46.052Z,95345.13
2022-08-19T16:09:15.933Z,95346.13
2022-08-19T16:11:46.397Z,95338.44
2022-08-19T16:14:15.395Z,95333.41
2022-08-19T16:16:47.192Z,95337.63
2022-08-19T16:19:17.533Z,95336.50
2022-08-19T16:21:48.158Z,95341.53
2022-08-19T16:24:19.768Z,95334.34
2022-08-19T16:26:49.243Z,95330.59
2022-08-19T16:29:21.973Z,95323.13
2022-08-19T16:32:02.820Z,95323.13
2022-08-19T16:34:32.065Z,95332.19
2022-08-19T16:37:01.814Z,95326.06
2022-08-19T16:39:31.383Z,95338.06
2022-08-19T16:42:00.230Z,95339.22
2022-08-19T16:44:29.903Z,95335.91
2022-08-19T16:46:59.508Z,95338.75
2022-08-19T16:49:53.073Z,95345.97
2022-08-19T16:52:16.627Z,95340.66
2022-08-19T16:54:46.172Z,95345.41
2022-08-19T16:57:14.876Z,95347.75
2022-08-19T16:59:48.853Z,95339.66
2022-08-19T17:02:18.613Z,95349.53
2022-08-19T17:04:55.926Z,95344.63
2022-08-19T17:07:26.742Z,95344.00
2022-08-19T17:09:56.431Z,95336.09
2022-08-19T17:12:30.247Z,95334.72
2022-08-19T17:15:00.461Z,95339.66
2022-08-19T17:17:29.568Z,95338.25
2022-08-19T17:19:57.735Z,95333.50
2022-08-19T17:22:25.703Z,95338.84
2022-08-19T17:24:58.037Z,95341.03
2022-08-19T17:27:27.353Z,95337.53
2022-08-19T17:30:02.400Z,95349.13
2022-08-19T17:32:34.948Z,95347.97
2022-08-19T17:35:04.586Z,95346.00
2022-08-19T17:37:32.851Z,95351.31
2022-08-19T17:40:02.739Z,95350.34
2022-08-19T17:42:31.959Z,95353.06
2022-08-19T17:45:00.125Z,95346.69
2022-08-19T17:47:29.107Z,95340.72
2022-08-19T17:49:57.307Z,95347.56
2022-08-19T17:52:26.100Z,95348.63
2022-08-19T17:54:54.112Z,95344.53
2022-08-19T17:57:23.719Z,95351.00
2022-08-19T17:59:51.760Z,95346.28
2022-08-19T18:02:21.943Z,95350.59
2022-08-19T18:04:50.480Z,95353.31
2022-08-19T18:07:21.634Z,95353.22
2022-08-19T18:09:52.777Z,95351.97
2022-08-19T18:12:26.531Z,95352.13
2022-08-19T18:14:54.901Z,95357.00
2022-08-19T18:17:23.563Z,95351.75
2022-08-19T18:19:51.590Z,95354.84
2022-08-19T18:22:26.707Z,95360.09
2022-08-19T18:24:56.073Z,95369.16
2022-08-19T18:27:26.116Z,95370.16
2022-08-19T18:29:54.633Z,95364.84
2022-08-19T18:32:24.066Z,95371.81
2022-08-19T18:34:52.255Z,95376.63
2022-08-19T18:37:20.841Z,95382.50
2022-08-19T18:40:06.346Z,95384.91
2022-08-19T18:42:53.360Z,95397.03
2022-08-19T18:45:53.427Z,95395.69
2022-08-19T18:48:39.024Z,95400.47
2022-08-19T18:51:07.621Z,95399.19
2022-08-19T18:53:38.829Z,95395.69
2022-08-19T18:56:08.052Z,95395.69
2022-08-19T18:58:39.341Z,95395.13
2022-08-19T19:01:12.599Z,95388.22
2022-08-19T19:03:45.256Z,95398.41
2022-08-19T19:06:14.244Z,95393.59
2022-08-19T19:08:42.620Z,95401.63
2022-08-19T19:11:10.673Z,95412.22
2022-08-19T19:13:41.402Z,95410.44
2022-08-19T19:16:11.705Z,95418.22
2022-08-19T19:18:40.073Z,95429.38
2022-08-19T19:21:08.954Z,95421.94
2022-08-19T19:23:40.934Z,95423.03
2022-08-19T19:26:10.854Z,95423.03
2022-08-19T19:28:43.842Z,95430.50
2022-08-19T19:31:13.952Z,95429.47
2022-08-19T19:33:42.220Z,95431.13
2022-08-19T19:36:10.259Z,95430.09
2022-08-19T19:38:38.356Z,95441.75
2022-08-19T19:41:06.646Z,95434.84
2022-08-19T19:43:40.791Z,95437.00
2022-08-19T19:46:10.605Z,95442.28
2022-08-19T19:48:38.905Z,95448.16
2022-08-19T19:51:07.272Z,95455.59
2022-08-19T19:53:35.256Z,95441.84
2022-08-19T19:56:04.265Z,95440.81
2022-08-19T19:58:35.607Z,95455.13
2022-08-19T20:01:09.657Z,95461.59
2022-08-19T20:03:39.524Z,95452.63
2022-08-19T20:06:08.188Z,95448.94
2022-08-19T20:08:54.115Z,95456.50
2022-08-19T20:11:32.951Z,95457.59
2022-08-19T20:14:03.987Z,95460.94
2022-08-19T20:16:32.953Z,95465.41
2022-08-19T20:19:03.590Z,95459.00
2022-08-19T20:21:33.198Z,95456.88
2022-08-19T20:24:09.389Z,95459.81
2022-08-19T20:26:38.441Z,95469.69
2022-08-19T20:29:13.349Z,95469.16
2022-08-19T20:31:57.234Z,95473.44
2022-08-19T20:34:28.116Z,95468.13
2022-08-19T20:36:56.184Z,95470.81
2022-08-19T20:39:24.205Z,95476.13
2022-08-19T20:41:52.117Z,95470.34
2022-08-19T20:44:20.093Z,95471.63
2022-08-19T20:46:55.439Z,95476.69
2022-08-19T20:49:27.464Z,95483.63
2022-08-19T20:51:57.541Z,95475.13
2022-08-19T20:54:25.975Z,95477.25
2022-08-19T20:56:54.203Z,95466.13
2022-08-19T20:59:23.062Z,95473.56
2022-08-19T21:01:52.281Z,95461.88
2022-08-19T21:04:21.465Z,95467.72
2022-08-19T21:06:49.528Z,95483.09
2022-08-19T21:09:18.931Z,95475.09
2022-08-19T21:11:47.043Z,95480.47
2022-08-19T21:14:15.121Z,95488.44
2022-08-19T21:16:43.056Z,95478.09
2022-08-19T21:19:11.030Z,95482.09
2022-08-19T21:21:38.959Z,95476.28
2022-08-19T21:24:07.223Z,95473.63
2022-08-19T21:26:36.708Z,95483.44
2022-08-19T21:29:04.935Z,95477.91
2022-08-19T21:31:33.530Z,95475.75
2022-08-19T21:34:02.149Z,95468.31
2022-08-19T21:36:30.114Z,95470.44
2022-08-19T21:38:58.088Z,95480.53
2022-08-19T21:41:26.028Z,95493.25
2022-08-19T21:43:55.418Z,95489.78
2022-08-19T21:46:23.518Z,95489.53
2022-08-19T21:48:51.450Z,95489.00
2022-08-19T21:51:19.516Z,95494.84
2022-08-19T21:53:49.341Z,95489.53
2022-08-19T21:56:21.325Z,95487.44
2022-08-19T21:58:49.453Z,95493.78
2022-08-19T22:01:18.986Z,95491.13
2022-08-19T22:03:47.022Z,95496.72
2022-08-19T22:06:16.429Z,95498.53
2022-08-19T22:08:44.768Z,95494.84
2022-08-19T22:11:13.128Z,95487.97
2022-08-19T22:13:41.515Z,95491.13
2022-08-19T22:16:11.099Z,95495.34
2022-08-19T22:18:40.759Z,95500.09
2022-08-19T22:21:12.019Z,95496.41
2022-08-19T22:23:41.746Z,95501.19
2022-08-19T22:26:09.724Z,95495.38
2022-08-19T22:28:37.835Z,95492.19
2022-08-19T22:31:08.041Z,95494.31
2022-08-19T22:33:36.998Z,95500.13
2022-08-19T22:36:07.605Z,95498.00
2022-08-19T22:38:35.695Z,95504.09
2022-08-19T22:41:04.228Z,95502.22
2022-08-19T22:43:34.033Z,95507.56
2022-08-19T22:46:02.554Z,95509.66
2022-08-19T22:48:32.672Z,95510.63
2022-08-19T22:51:19.113Z,95512.25
2022-08-19T22:53:48.747Z,95500.16
2022-08-19T22:56:19.377Z,95501.22
2022-08-19T22:58:50.171Z,95500.69
2022-08-19T23:01:27.275Z,95492.75
2022-08-19T23:03:59.381Z,95489.00
2022-08-19T23:06:34.152Z,95487.41
2022-08-19T23:09:06.744Z,95496.94
2022-08-19T23:11:41.667Z,95491.63
2022-08-19T23:14:12.484Z,95490.31
2022-08-19T23:16:41.853Z,95494.81
2022-08-19T23:19:11.200Z,95488.47
2022-08-19T23:21:39.355Z,95483.44
2022-08-19T23:24:09.744Z,95481.63
2022-08-19T23:26:38.003Z,95482.13
2022-08-19T23:29:24.708Z,95481.88
2022-08-19T23:31:52.845Z,95484.25
2022-08-19T23:34:21.543Z,95490.59
2022-08-19T23:36:50.836Z,95486.88
2022-08-19T23:39:20.357Z,95483.16
2022-08-19T23:41:48.384Z,95481.59
2022-08-19T23:44:16.367Z,95476.53
2022-08-19T23:46:54.780Z,95463.56
2022-08-19T23:49:24.465Z,95461.44
2022-08-19T23:51:52.425Z,95466.75
2022-08-19T23:54:21.765Z,95473.63
2022-08-19T23:56:50.068Z,95462.53
2022-08-19T23:59:19.270Z,95468.31
